East Connersville, Indiana
Current Conditions -  °F | °C
As of 3:35 AM on Sunday 23 Nov 2014 (Local Time) from KI67 Reporting Station
Overcast Overcast  
Wind Chill: 52°   Ceiling: 5000
Heat Index: 52°   Visibility: 10mi
Dew Point: 36°   Wind: 5mph
Humidity: 54%   Direction: 200°SSW
Pressure: 30.02"   Gusts: NA
Location:  39.645°N, 85.1744°W
Report Text: KI67 230835Z AUTO 20004KT 10SM BKN050 OVC075 11/02 A3002 RMK AO1
Loading
Personal Weather Stations






























Interactive Weather Map New forecast layout! Learn more

10-Day Weather Forecast

Advertisements
Track Severe Weather on mobile